createdAt,value
2022-11-05T00:03:19.627Z,99646.66
2022-11-05T00:06:39.928Z,99649.31
2022-11-05T00:09:41.746Z,99655.63
2022-11-05T00:13:02.372Z,99655.63
2022-11-05T00:16:42.344Z,99657.41
2022-11-05T00:19:44.199Z,99660.84
2022-11-05T00:23:04.737Z,99652.38
2022-11-05T00:26:07.515Z,99656.34
2022-11-05T00:29:09.345Z,99651.50
2022-11-05T00:32:11.125Z,99643.66
2022-11-05T00:35:12.937Z,99638.56
2022-11-05T00:38:14.795Z,99644.00
2022-11-05T00:41:16.645Z,99640.59
2022-11-05T00:44:37.153Z,99641.69
2022-11-05T00:47:57.896Z,99644.16
2022-11-05T00:50:59.689Z,99647.03
2022-11-05T00:54:01.538Z,99652.88
2022-11-05T00:57:04.770Z,99649.09
2022-11-05T01:00:07.065Z,99658.69
2022-11-05T01:03:13.651Z,99664.75
2022-11-05T01:06:16.270Z,99665.13
2022-11-05T01:09:18.123Z,99668.34
2022-11-05T01:12:19.932Z,99662.28
2022-11-05T01:15:21.808Z,99650.19
2022-11-05T01:18:24.155Z,99657.59
2022-11-05T01:21:25.929Z,99659.31
2022-11-05T01:24:27.751Z,99646.50
2022-11-05T01:27:29.595Z,99650.06
2022-11-05T01:30:31.594Z,99648.63
2022-11-05T01:33:33.389Z,99654.28
2022-11-05T01:36:35.191Z,99644.47
2022-11-05T01:39:37.141Z,99649.72
2022-11-05T01:42:38.921Z,99643.47
2022-11-05T01:45:40.717Z,99658.19
2022-11-05T01:48:42.538Z,99663.16
2022-11-05T01:51:44.556Z,99664.47
2022-11-05T01:54:46.388Z,99671.66
2022-11-05T01:57:48.511Z,99672.44
2022-11-05T02:00:50.314Z,99688.78
2022-11-05T02:03:52.906Z,99687.22
2022-11-05T02:06:54.742Z,99691.72
2022-11-05T02:10:06.784Z,99685.12
2022-11-05T02:13:08.834Z,99685.03
2022-11-05T02:16:31.322Z,99686.97
2022-11-05T02:19:46.291Z,99681.41
2022-11-05T02:23:23.642Z,99679.56
2022-11-05T02:26:45.654Z,99676.78
2022-11-05T02:30:03.206Z,99697.00
2022-11-05T02:33:20.792Z,99680.72
2022-11-05T02:36:28.853Z,99679.41
2022-11-05T02:39:49.543Z,99694.47
2022-11-05T02:43:15.208Z,99693.78
2022-11-05T02:46:16.959Z,99688.87
2022-11-05T02:49:31.028Z,99691.84
2022-11-05T02:52:35.135Z,99696.06
2022-11-05T02:55:37.540Z,99700.00
2022-11-05T02:58:39.308Z,99706.03
2022-11-05T03:01:41.439Z,99698.50
2022-11-05T03:04:43.357Z,99699.00
2022-11-05T03:07:47.842Z,99713.41
2022-11-05T03:10:56.437Z,99709.16
2022-11-05T03:14:04.132Z,99701.41
2022-11-05T03:17:11.293Z,99697.38
2022-11-05T03:20:16.204Z,99716.31
2022-11-05T03:23:21.125Z,99714.62
2022-11-05T03:26:29.849Z,99717.94
2022-11-05T03:29:36.277Z,99716.94
2022-11-05T03:32:42.479Z,99721.41
2022-11-05T03:35:48.334Z,99724.53
2022-11-05T03:38:50.394Z,99714.78
2022-11-05T03:41:52.416Z,99727.28
2022-11-05T03:44:55.749Z,99733.69
2022-11-05T03:47:57.925Z,99738.69
2022-11-05T03:51:01.122Z,99741.22
2022-11-05T03:54:03.144Z,99745.62
2022-11-05T03:57:06.619Z,99742.63
2022-11-05T04:00:09.169Z,99744.03
2022-11-05T04:03:11.190Z,99748.81
2022-11-05T04:06:31.949Z,99751.28
2022-11-05T04:09:52.514Z,99744.94
2022-11-05T04:13:13.053Z,99733.09
2022-11-05T04:16:34.083Z,99726.16
2022-11-05T04:19:55.287Z,99733.13
2022-11-05T04:23:25.023Z,99721.69
2022-11-05T04:26:26.841Z,99726.37
2022-11-05T04:29:47.498Z,99734.59
2022-11-05T04:32:55.920Z,99739.22
2022-11-05T04:35:57.701Z,99731.06
2022-11-05T04:38:59.518Z,99724.44
2022-11-05T04:42:01.292Z,99722.91
2022-11-05T04:45:03.102Z,99710.06
2022-11-05T04:48:04.956Z,99719.72
2022-11-05T04:51:06.729Z,99713.28
2022-11-05T04:54:08.577Z,99719.97
2022-11-05T04:57:10.341Z,99728.69
2022-11-05T05:00:12.221Z,99726.19
2022-11-05T05:03:14.325Z,99730.56
2022-11-05T05:06:16.432Z,99733.81
2022-11-05T05:09:18.287Z,99739.94
2022-11-05T05:12:20.057Z,99732.69
2022-11-05T05:15:21.866Z,99740.50
2022-11-05T05:18:25.346Z,99731.97
2022-11-05T05:21:39.218Z,99730.84
2022-11-05T05:24:41.108Z,99744.13
2022-11-05T05:27:42.891Z,99742.91
2022-11-05T05:30:44.688Z,99745.94
2022-11-05T05:33:46.462Z,99742.50
2022-11-05T05:36:48.304Z,99738.56
2022-11-05T05:39:50.150Z,99739.16
2022-11-05T05:42:55.629Z,99754.84
2022-11-05T05:45:57.547Z,99757.56
2022-11-05T05:48:59.404Z,99764.91
2022-11-05T05:52:01.241Z,99757.28
2022-11-05T05:55:03.261Z,99763.88
2022-11-05T05:58:05.054Z,99766.91
2022-11-05T06:01:08.625Z,99784.22
2022-11-05T06:04:10.402Z,99791.38
2022-11-05T06:07:12.434Z,99792.91
2022-11-05T06:10:14.236Z,99803.72
2022-11-05T06:13:16.121Z,99808.44
2022-11-05T06:16:19.472Z,99807.94
2022-11-05T06:19:21.267Z,99807.00
2022-11-05T06:22:23.055Z,99813.38
2022-11-05T06:25:25.167Z,99813.62
2022-11-05T06:28:27.145Z,99809.97
2022-11-05T06:31:28.973Z,99816.69
2022-11-05T06:34:30.739Z,99818.81
2022-11-05T06:37:33.917Z,99826.09
2022-11-05T06:40:35.712Z,99827.19
2022-11-05T06:43:37.643Z,99824.91
2022-11-05T06:46:41.318Z,99836.97
2022-11-05T06:49:45.429Z,99833.78
2022-11-05T06:52:52.534Z,99838.88
2022-11-05T06:55:54.334Z,99833.28
2022-11-05T06:58:56.152Z,99844.66
2022-11-05T07:01:58.271Z,99843.84
2022-11-05T07:05:00.153Z,99843.00
2022-11-05T07:08:01.935Z,99852.81
2022-11-05T07:11:04.092Z,99836.91
2022-11-05T07:14:05.979Z,99841.78
2022-11-05T07:17:07.809Z,99830.22
2022-11-05T07:20:10.737Z,99842.06
2022-11-05T07:23:13.562Z,99840.25
2022-11-05T07:26:15.539Z,99847.72
2022-11-05T07:29:17.340Z,99843.59
2022-11-05T07:32:19.111Z,99839.78
2022-11-05T07:35:21.007Z,99848.97
2022-11-05T07:38:22.817Z,99845.66
2022-11-05T07:41:24.655Z,99843.38
2022-11-05T07:44:26.636Z,99847.13
2022-11-05T07:47:28.498Z,99839.00
2022-11-05T07:50:31.298Z,99843.56
2022-11-05T07:53:33.121Z,99852.44
2022-11-05T07:56:34.913Z,99847.87
2022-11-05T07:59:36.921Z,99852.50
2022-11-05T08:02:38.966Z,99839.97
2022-11-05T08:05:43.298Z,99841.47
2022-11-05T08:08:45.077Z,99843.16
2022-11-05T08:11:46.942Z,99849.19
2022-11-05T08:14:48.747Z,99844.44
2022-11-05T08:17:50.559Z,99842.09
2022-11-05T08:20:52.368Z,99838.22
2022-11-05T08:23:54.200Z,99830.28
2022-11-05T08:26:56.248Z,99830.47
2022-11-05T08:29:58.034Z,99829.53
2022-11-05T08:33:00.886Z,99826.19
2022-11-05T08:36:03.565Z,99820.41
2022-11-05T08:39:05.357Z,99821.19
2022-11-05T08:42:07.135Z,99827.88
2022-11-05T08:45:09.170Z,99829.53
2022-11-05T08:48:12.096Z,99829.53
2022-11-05T08:51:13.871Z,99825.44
2022-11-05T08:54:15.755Z,99830.28
2022-11-05T08:57:17.568Z,99829.19
2022-11-05T09:00:19.380Z,99832.63
2022-11-05T09:03:21.264Z,99833.91
2022-11-05T09:06:23.272Z,99835.91
2022-11-05T09:09:25.248Z,99841.37
2022-11-05T09:12:27.069Z,99853.88
2022-11-05T09:15:29.156Z,99844.47
2022-11-05T09:18:30.980Z,99866.00
2022-11-05T09:21:32.787Z,99865.50
2022-11-05T09:24:34.558Z,99858.25
2022-11-05T09:27:36.336Z,99863.50
2022-11-05T09:30:41.790Z,99872.44
2022-11-05T09:33:43.644Z,99873.13
2022-11-05T09:36:45.442Z,99868.12
2022-11-05T09:39:47.222Z,99867.66
2022-11-05T09:42:52.383Z,99865.06
2022-11-05T09:45:54.826Z,99867.16
2022-11-05T09:49:04.300Z,99867.44
2022-11-05T09:52:06.353Z,99860.47
2022-11-05T09:55:27.850Z,99859.41
2022-11-05T09:58:44.299Z,99860.28
2022-11-05T10:01:46.747Z,99855.31
2022-11-05T10:04:49.631Z,99866.84
2022-11-05T10:07:54.643Z,99861.38
2022-11-05T10:11:01.471Z,99863.56
2022-11-05T10:14:06.467Z,99864.28
2022-11-05T10:17:10.299Z,99860.03
2022-11-05T10:20:30.864Z,99870.03
2022-11-05T10:23:32.754Z,99869.56
2022-11-05T10:26:34.567Z,99867.62
2022-11-05T10:29:36.588Z,99866.75
2022-11-05T10:32:40.681Z,99873.97
2022-11-05T10:35:46.703Z,99861.59
2022-11-05T10:38:48.691Z,99864.41
2022-11-05T10:41:59.678Z,99868.94
2022-11-05T10:45:04.686Z,99861.59
2022-11-05T10:48:24.941Z,99853.25
2022-11-05T10:51:26.817Z,99870.25
2022-11-05T10:54:30.698Z,99875.31
2022-11-05T10:57:36.628Z,99870.38
2022-11-05T11:00:38.668Z,99881.66
2022-11-05T11:03:44.685Z,99880.72
2022-11-05T11:07:04.632Z,99888.38
2022-11-05T11:10:06.544Z,99887.22
2022-11-05T11:13:21.665Z,99892.25
2022-11-05T11:16:24.748Z,99886.13
2022-11-05T11:19:33.797Z,99894.69
2022-11-05T11:22:35.641Z,99899.09
2022-11-05T11:25:40.747Z,99897.09
2022-11-05T11:28:50.969Z,99893.22
2022-11-05T11:31:56.403Z,99885.94
2022-11-05T11:34:58.470Z,99897.53
2022-11-05T11:38:01.082Z,99887.19
2022-11-05T11:41:42.014Z,99896.78
2022-11-05T11:44:44.852Z,99889.16
2022-11-05T11:47:47.370Z,99887.66
2022-11-05T11:50:49.331Z,99901.47
2022-11-05T11:53:51.194Z,99898.12
2022-11-05T11:56:53.032Z,99892.78
2022-11-05T12:00:08.433Z,99891.63
2022-11-05T12:03:23.291Z,99893.50
2022-11-05T12:06:34.320Z,99887.78
2022-11-05T12:09:59.358Z,99893.34
2022-11-05T12:13:16.886Z,99887.44
2022-11-05T12:16:26.910Z,99888.03
2022-11-05T12:19:35.018Z,99896.19
2022-11-05T12:22:46.084Z,99897.16
2022-11-05T12:26:04.088Z,99903.22
2022-11-05T12:29:19.356Z,99917.59
2022-11-05T12:32:24.520Z,99923.56
2022-11-05T12:35:42.838Z,99920.31
2022-11-05T12:38:52.170Z,99932.87
2022-11-05T12:42:03.112Z,99929.81
2022-11-05T12:45:12.564Z,99930.72
2022-11-05T12:48:32.803Z,99924.63
2022-11-05T12:51:41.335Z,99927.69
2022-11-05T12:54:43.183Z,99936.00
2022-11-05T12:57:45.779Z,99945.81
2022-11-05T13:00:49.031Z,99951.69
2022-11-05T13:03:52.527Z,99950.97
2022-11-05T13:06:54.979Z,99956.00
2022-11-05T13:09:58.847Z,99947.22
2022-11-05T13:13:20.874Z,99949.84
2022-11-05T13:16:24.888Z,99954.03
2022-11-05T13:19:27.827Z,99948.34
2022-11-05T13:22:33.555Z,99964.63
2022-11-05T13:25:36.160Z,99967.44
2022-11-05T13:28:40.933Z,99959.56
2022-11-05T13:31:48.901Z,99957.16
2022-11-05T13:34:57.259Z,99964.13
2022-11-05T13:38:20.732Z,99961.41
2022-11-05T13:41:28.293Z,99960.81
2022-11-05T13:44:30.051Z,99966.62
2022-11-05T13:47:37.903Z,99963.09
2022-11-05T13:50:58.427Z,99957.28
2022-11-05T13:54:18.212Z,99964.44
2022-11-05T13:57:23.102Z,99959.44
2022-11-05T14:00:26.975Z,99965.56
2022-11-05T14:03:28.809Z,99981.53
2022-11-05T14:06:36.984Z,99979.53
2022-11-05T14:09:39.045Z,99984.09
2022-11-05T14:12:40.836Z,99988.75
2022-11-05T14:15:52.310Z,99976.09
2022-11-05T14:18:55.845Z,99972.19
2022-11-05T14:21:58.025Z,99978.13
2022-11-05T14:25:00.517Z,99972.69
2022-11-05T14:28:02.378Z,99986.37
2022-11-05T14:31:13.304Z,99985.19
2022-11-05T14:34:15.145Z,99993.72
2022-11-05T14:37:16.857Z,99993.53
2022-11-05T14:40:21.449Z,100002.31
2022-11-05T14:43:24.384Z,100006.66
2022-11-05T14:46:35.019Z,100012.78
2022-11-05T14:49:37.817Z,100019.97
2022-11-05T14:52:40.120Z,100010.56
2022-11-05T14:55:42.379Z,100016.25
2022-11-05T14:58:44.729Z,100010.78
2022-11-05T15:01:46.605Z,100017.38
2022-11-05T15:04:50.615Z,100021.22
2022-11-05T15:07:55.976Z,100019.59
2022-11-05T15:11:14.683Z,100028.75
2022-11-05T15:14:16.451Z,100030.63
2022-11-05T15:17:20.364Z,100020.75
2022-11-05T15:20:22.716Z,100023.72
2022-11-05T15:23:25.690Z,100027.53
2022-11-05T15:26:36.607Z,100032.41
2022-11-05T15:29:38.441Z,100037.00
2022-11-05T15:32:40.282Z,100048.97
2022-11-05T15:35:42.509Z,100042.41
2022-11-05T15:39:01.999Z,100052.34
2022-11-05T15:42:07.434Z,100045.41
2022-11-05T15:45:18.206Z,100053.34
2022-11-05T15:48:20.063Z,100049.06
2022-11-05T15:51:22.821Z,100049.69
2022-11-05T15:54:30.068Z,100051.03
2022-11-05T15:57:32.602Z,100054.69
2022-11-05T16:00:35.007Z,100071.41
2022-11-05T16:03:37.503Z,100062.03
2022-11-05T16:06:40.082Z,100060.31
2022-11-05T16:09:43.696Z,100077.28
2022-11-05T16:12:46.051Z,100071.88
2022-11-05T16:15:58.084Z,100076.59
2022-11-05T16:18:59.976Z,100080.38
2022-11-05T16:22:02.324Z,100083.19
2022-11-05T16:25:20.981Z,100092.09
2022-11-05T16:28:26.903Z,100099.13
2022-11-05T16:31:29.830Z,100098.59
2022-11-05T16:34:31.695Z,100102.19
2022-11-05T16:37:39.742Z,100106.97
2022-11-05T16:40:41.633Z,100109.53
2022-11-05T16:43:50.778Z,100105.63
2022-11-05T16:46:52.596Z,100108.22
2022-11-05T16:49:54.402Z,100119.59
2022-11-05T16:52:56.396Z,100116.59
2022-11-05T16:55:58.186Z,100122.16
2022-11-05T16:59:00.152Z,100130.81
2022-11-05T17:02:02.088Z,100128.59
2022-11-05T17:05:03.954Z,100136.19
2022-11-05T17:08:05.757Z,100138.47
2022-11-05T17:11:07.592Z,100140.62
2022-11-05T17:14:09.772Z,100147.72
2022-11-05T17:17:11.586Z,100150.88
2022-11-05T17:20:21.986Z,100149.44
2022-11-05T17:23:26.625Z,100152.37
2022-11-05T17:26:28.451Z,100156.31
2022-11-05T17:29:30.250Z,100167.31
2022-11-05T17:32:32.090Z,100163.56
2022-11-05T17:35:33.918Z,100162.25
2022-11-05T17:38:35.735Z,100165.31
2022-11-05T17:41:37.566Z,100164.59
2022-11-05T17:44:39.375Z,100167.69
2022-11-05T17:47:42.197Z,100172.44
2022-11-05T17:50:44.804Z,100181.00
2022-11-05T17:53:47.385Z,100184.66
2022-11-05T17:56:49.194Z,100184.09
2022-11-05T17:59:51.025Z,100181.66
2022-11-05T18:02:53.321Z,100183.03
2022-11-05T18:06:00.577Z,100181.69
2022-11-05T18:09:02.389Z,100185.41
2022-11-05T18:12:04.349Z,100183.31
2022-11-05T18:15:06.467Z,100187.22
2022-11-05T18:18:08.414Z,100198.31
2022-11-05T18:21:10.256Z,100194.25
2022-11-05T18:24:12.224Z,100200.59
2022-11-05T18:27:14.046Z,100207.38
2022-11-05T18:30:16.060Z,100207.03
2022-11-05T18:33:17.871Z,100217.47
2022-11-05T18:36:20.452Z,100220.41
2022-11-05T18:39:22.307Z,100225.94
2022-11-05T18:42:25.305Z,100227.09
2022-11-05T18:45:29.873Z,100233.25
2022-11-05T18:48:32.207Z,100234.03
2022-11-05T18:51:33.987Z,100245.09
2022-11-05T18:54:35.821Z,100244.19
2022-11-05T18:57:37.706Z,100249.66
2022-11-05T19:00:39.872Z,100254.34
2022-11-05T19:03:41.724Z,100264.37
2022-11-05T19:06:43.555Z,100255.62
2022-11-05T19:09:45.429Z,100257.22
2022-11-05T19:12:47.322Z,100269.62
2022-11-05T19:15:49.121Z,100269.72
2022-11-05T19:18:51.197Z,100271.34
2022-11-05T19:21:53.006Z,100270.81
2022-11-05T19:24:54.847Z,100272.09
2022-11-05T19:27:58.571Z,100288.19
2022-11-05T19:31:00.368Z,100281.56
2022-11-05T19:34:03.216Z,100290.94
2022-11-05T19:37:08.099Z,100285.09
2022-11-05T19:40:10.380Z,100295.06
2022-11-05T19:43:12.167Z,100295.47
2022-11-05T19:46:15.817Z,100300.50
2022-11-05T19:49:17.630Z,100304.56
2022-11-05T19:52:19.429Z,100316.06
2022-11-05T19:55:21.316Z,100313.50
2022-11-05T19:58:23.212Z,100316.72
2022-11-05T20:01:25.917Z,100320.81
2022-11-05T20:04:27.803Z,100328.44
2022-11-05T20:07:30.099Z,100327.75
2022-11-05T20:10:32.283Z,100339.91
2022-11-05T20:13:34.282Z,100346.34
2022-11-05T20:16:40.217Z,100344.16
2022-11-05T20:19:42.105Z,100347.38
2022-11-05T20:22:43.912Z,100346.47
2022-11-05T20:25:45.713Z,100352.84
2022-11-05T20:28:47.538Z,100353.41
2022-11-05T20:31:49.503Z,100355.09
2022-11-05T20:34:51.309Z,100360.00
2022-11-05T20:37:54.401Z,100363.50
2022-11-05T20:40:56.382Z,100357.38
2022-11-05T20:43:58.163Z,100363.56
2022-11-05T20:46:59.997Z,100370.53
2022-11-05T20:50:03.960Z,100365.41
2022-11-05T20:53:05.774Z,100366.56
2022-11-05T20:56:10.532Z,100373.09
2022-11-05T20:59:12.371Z,100371.66
2022-11-05T21:02:14.321Z,100378.03
2022-11-05T21:05:16.326Z,100375.91
2022-11-05T21:08:20.092Z,100392.50
2022-11-05T21:11:21.943Z,100390.03
2022-11-05T21:14:23.761Z,100386.22
2022-11-05T21:17:25.626Z,100385.59
2022-11-05T21:20:27.455Z,100380.03
2022-11-05T21:23:29.319Z,100383.31
2022-11-05T21:26:33.566Z,100386.31
2022-11-05T21:29:35.371Z,100387.41
2022-11-05T21:32:37.176Z,100381.72
2022-11-05T21:35:44.140Z,100389.22
2022-11-05T21:38:45.960Z,100388.69
2022-11-05T21:41:47.795Z,100391.66
2022-11-05T21:44:49.766Z,100390.94
2022-11-05T21:47:51.595Z,100394.16
2022-11-05T21:51:11.894Z,100392.25
2022-11-05T21:54:32.499Z,100385.87
2022-11-05T21:57:53.089Z,100396.72
2022-11-05T22:00:54.948Z,100391.44
2022-11-05T22:04:02.670Z,100397.31
2022-11-05T22:07:05.264Z,100397.75
2022-11-05T22:10:13.176Z,100391.59
2022-11-05T22:13:17.580Z,100396.94
2022-11-05T22:16:19.392Z,100403.50
2022-11-05T22:19:21.584Z,100394.59
2022-11-05T22:22:23.415Z,100399.50
2022-11-05T22:25:25.306Z,100413.59
2022-11-05T22:28:27.134Z,100405.16
2022-11-05T22:31:34.746Z,100399.22
2022-11-05T22:34:37.944Z,100403.97
2022-11-05T22:37:39.781Z,100401.25
2022-11-05T22:40:41.605Z,100404.62
2022-11-05T22:43:43.677Z,100401.00
2022-11-05T22:46:45.483Z,100407.88
2022-11-05T22:49:48.943Z,100404.75
2022-11-05T22:52:50.728Z,100404.38
2022-11-05T22:55:52.555Z,100408.50
2022-11-05T22:58:54.456Z,100403.78
2022-11-05T23:01:56.407Z,100410.28
2022-11-05T23:04:58.270Z,100416.22
2022-11-05T23:08:18.649Z,100417.88
2022-11-05T23:11:38.599Z,100418.09
2022-11-05T23:14:40.464Z,100409.91
2022-11-05T23:18:00.783Z,100416.87
2022-11-05T23:21:23.137Z,100415.88
2022-11-05T23:24:25.125Z,100416.66
2022-11-05T23:27:30.714Z,100414.94
2022-11-05T23:30:32.559Z,100420.56
2022-11-05T23:33:34.688Z,100425.84
2022-11-05T23:36:55.274Z,100429.72
2022-11-05T23:39:57.120Z,100431.41
2022-11-05T23:43:17.522Z,100432.00
2022-11-05T23:46:37.726Z,100437.19
2022-11-05T23:49:39.537Z,100429.28
2022-11-05T23:52:41.347Z,100437.78
2022-11-05T23:55:43.172Z,100435.12
2022-11-05T23:58:44.979Z,100433.37
